UMMSEYVI

Guest
Details From UMMS - Minsk Velikiydvor
To EYVI - VILNIUS INTL
Flight Number -
Tags generated
Created
Modified
Stats Distance 106 nm / 197 km
Max Altitude 100 ft / 30 m
Waypoints 3
Social Downloads 1
Likes 0
Share VATSIM

Download

Looking for another format? Having issues loading an existing format? Contact us
Advertisement - Login to hide

Notes

Basic altitude profile: - Ascent Rate: 2500ft/min - Ascent Speed: 250kts - Cruise Altitude: 35000ft - Cruise Speed: 420kts - Descent Rate: 1500ft/min - Descent Speed: 250kts Options: - Use NATs: yes - Use PACOTS: yes - Use low airways: yes - Use high airways: no

Route

UMMS MNS EYVI

ID Type Via Altitude Latitude Longitude Leg Dist Tot Dist Heading (true) Name
O UMMS APT - 0 ft / 0 m 53.88255˚ 28.03079˚ - 0 nm - Minsk Velikiydvor
MNS VOR - 100 ft / 30 m 53.88500˚ 28.02167˚ 0 nm 0 nm 295° / 295° MINSK-2 VOR-DME
O EYVI APT - 0 ft / 0 m 54.63417˚ 25.28580˚ 105 nm 106 nm 296° / 294° VILNIUS INTL

Altitude Profile

Advertisement - Login to hide

UMMS

Details ICAO UMMS (MSQ)
Name Minsk Velikiydvor
Region Belarus and Russia (Kaliningrad Oblast)
Timezone Europe/Minsk (UTC+3.0)
Stats Elevation 669 ft / 204 m (AMSL)
Location 53.882550° 28.030786°
Runways 1
Magnetic Variation 8.065° E

METAR

UMMS 201030Z 35007G13MPS CAVOK 17/01 Q1023 R31/D NOSIG

Decode

TAF

TAF UMMS 200502Z 2006/2106 01005G10MPS 9999 BKN025 TEMPO 2006/2020 03007G12MPS TEMPO 2020/2106 04005MPS 1200 BR BKN003

Decode

Departure Runways

ID Width Length Bearing (true) Bearing (mag) Surface Threshold Offset Overrun Length
13 197 ft / 60 m 11,938 ft / 3,639 m 138.85° 130.79° Concrete 0 ft / 0 m 0 ft / 0 m
31 197 ft / 60 m 11,938 ft / 3,639 m 318.88° 310.82° Concrete 0 ft / 0 m 0 ft / 0 m

EYVI

Details ICAO EYVI (VNO)
Name VILNIUS INTL
Region Lithuania
Timezone Europe/Vilnius (UTC+3.0)
Stats Elevation 646 ft / 197 m (AMSL)
Location 54.634166° 25.285796°
Runways 1
Magnetic Variation 7.528° E

METAR

EYVI 201020Z 05009KT 340V100 CAVOK 17/02 Q1025 NOSIG

Decode

TAF

TAF EYVI 192307Z 2000/2024 01006KT 9000 NSC BECMG 2007/2009 01016KT SCT035 BECMG 2016/2018 VRB04KT

Decode

Destination Runways

ID Width Length Bearing (true) Bearing (mag) Surface Threshold Offset Overrun Length
02 164 ft / 50 m 8,210 ft / 2,502 m 21.89° 14.36° Asphalt 0 ft / 0 m 151 ft / 46 m
20 164 ft / 50 m 8,210 ft / 2,502 m 201.91° 194.38° Asphalt 0 ft / 0 m 0 ft / 0 m

Approach Navaids

Runway Type Ident Frequency Range Bearing (true) Bearing (mag) Slope Elevation
02 Localiser IAV 110.50 MHz 18 nm / 33 km 21.88° 14.35° - 646 ft / 197 m (AMSL)
02 Glidescope IAV 110.50 MHz 10 nm / 19 km 21.90° 14.37° 2.67° 646 ft / 197 m (AMSL)
20 Localiser IBK 109.10 MHz 18 nm / 33 km 201.87° 194.34° - 646 ft / 197 m (AMSL)
20 Glidescope IBK 109.10 MHz 10 nm / 19 km 201.90° 194.37° 3.00° 646 ft / 197 m (AMSL)
20 DME IBK 109.10 MHz 18 nm / 33 km - - - 651 ft / 198 m (AMSL)

Popular Alternatives